Time;durP1;ratioP1;P1;durP2;ratioP2;P2;SDS_P1;SDS_P2;PMS_P1;PMS_P2;Temp;Humidity;BMP_temperature;BMP_pressure;BME280_temperature;BME280_humidity;BME280_pressure;Samples;Min_cycle;Max_cycle;Signal;HPM_P1;HPM_P2
2022/10/21 00:02:10;;;;;;;64.20;21.73;;;;;;;;;;5034759;28;20817;-71
2022/10/21 00:04:36;;;;;;;54.00;23.00;;;;;;;;;;5034961;28;20437;-71
2022/10/21 00:07:02;;;;;;;216.60;24.17;;;;;;;;;;5034518;28;20408;-72
2022/10/21 00:09:28;;;;;;;36.93;21.90;;;;;;;;;;5034144;28;20473;-71
2022/10/21 00:11:54;;;;;;;89.43;22.90;;;;;;;;;;5032892;28;20409;-71
2022/10/21 00:14:19;;;;;;;32.20;21.60;;;;;;;;;;5034716;28;20409;-71
2022/10/21 00:16:45;;;;;;;24.90;18.97;;;;;;;;;;5034526;28;20427;-71
2022/10/21 00:19:11;;;;;;;30.83;20.93;;;;;;;;;;5034034;28;20512;-71
2022/10/21 00:21:39;;;;;;;45.07;21.80;;;;;;;;;;5033109;28;20442;-71
2022/10/21 00:24:05;;;;;;;65.00;24.20;;;;;;;;;;5034605;28;20475;-71
2022/10/21 00:26:31;;;;;;;36.23;23.80;;;;;;;;;;5034276;28;20904;-71
2022/10/21 00:28:58;;;;;;;29.53;22.63;;;;;;;;;;5034271;28;20493;-71
2022/10/21 00:31:24;;;;;;;24.00;20.87;;;;;;;;;;5034384;28;20418;-71
2022/10/21 00:33:51;;;;;;;26.90;19.27;;;;;;;;;;5034451;28;20413;-71
2022/10/21 00:36:17;;;;;;;24.13;18.80;;;;;;;;;;5034203;28;20898;-71
2022/10/21 00:38:43;;;;;;;20.53;18.00;;;;;;;;;;5034402;28;20493;-71
2022/10/21 00:41:10;;;;;;;38.90;18.30;;;;;;;;;;5034285;28;20398;-71
2022/10/21 00:43:54;;;;;;;34.83;21.10;;;;;;;;;;5034058;28;20466;-71
2022/10/21 00:46:25;;;;;;;21.30;19.10;;;;;;;;;;5034112;28;20445;-71
2022/10/21 00:48:54;;;;;;;22.30;18.97;;;;;;;;;;5033909;28;20469;-71
2022/10/21 00:51:20;;;;;;;22.17;17.47;;;;;;;;;;5033760;28;20394;-71
2022/10/21 00:53:48;;;;;;;21.33;17.63;;;;;;;;;;5034056;28;20926;-71
2022/10/21 00:56:19;;;;;;;19.83;17.63;;;;;;;;;;5034288;28;20773;-71
2022/10/21 00:58:46;;;;;;;18.80;16.93;;;;;;;;;;5033968;28;20403;-71
2022/10/21 01:01:12;;;;;;;21.87;17.30;;;;;;;;;;5033612;28;20395;-71
2022/10/21 01:03:38;;;;;;;19.83;17.70;;;;;;;;;;5033795;28;20521;-71
2022/10/21 01:06:06;;;;;;;20.23;18.13;;;;;;;;;;5033545;28;20441;-71
2022/10/21 01:08:33;;;;;;;18.30;16.40;;;;;;;;;;5033726;28;20407;-71
2022/10/21 01:11:00;;;;;;;19.93;16.23;;;;;;;;;;5034033;28;20403;-71
2022/10/21 01:13:38;;;;;;;20.33;17.00;;;;;;;;;;5032369;28;20822;-71
2022/10/21 01:16:16;;;;;;;26.27;15.87;;;;;;;;;;5033892;28;20401;-71
2022/10/21 01:18:56;;;;;;;21.20;16.80;;;;;;;;;;5033429;28;20461;-71
2022/10/21 01:21:34;;;;;;;17.53;15.87;;;;;;;;;;5033631;28;20490;-71
2022/10/21 01:24:06;;;;;;;20.90;18.30;;;;;;;;;;5033464;28;20473;-71
2022/10/21 01:26:43;;;;;;;24.83;17.93;;;;;;;;;;5033607;28;20405;-71
2022/10/21 01:29:15;;;;;;;19.77;17.77;;;;;;;;;;5033573;28;20418;-71
2022/10/21 01:32:00;;;;;;;19.63;17.67;;;;;;;;;;5033112;28;20414;-71
2022/10/21 01:34:28;;;;;;;27.57;18.63;;;;;;;;;;5033455;28;20477;-71
2022/10/21 01:37:00;;;;;;;26.53;17.17;;;;;;;;;;5033299;28;20973;-71
2022/10/21 01:39:34;;;;;;;22.70;15.73;;;;;;;;;;5033385;28;20429;-71
2022/10/21 01:42:13;;;;;;;26.43;16.40;;;;;;;;;;5033450;28;20950;-71
2022/10/21 01:45:05;;;;;;;18.60;16.00;;;;;;;;;;5033177;28;20506;-71
2022/10/21 01:47:33;;;;;;;22.40;16.87;;;;;;;;;;5024752;28;20462;-71
2022/10/21 01:50:01;;;;;;;17.47;15.17;;;;;;;;;;5033086;28;20421;-71
2022/10/21 01:52:29;;;;;;;16.60;14.90;;;;;;;;;;5033290;28;20422;-71
2022/10/21 01:55:00;;;;;;;23.13;15.73;;;;;;;;;;5033192;28;20407;-71
2022/10/21 01:57:27;;;;;;;20.50;15.20;;;;;;;;;;5033190;28;20394;-71
2022/10/21 01:59:54;;;;;;;17.67;15.67;;;;;;;;;;5033193;28;20502;-71
2022/10/21 02:02:21;;;;;;;20.03;15.37;;;;;;;;;;5034926;28;20407;-71
2022/10/21 02:04:49;;;;;;;22.00;17.23;;;;;;;;;;5036991;28;20411;-71
2022/10/21 02:07:15;;;;;;;18.37;16.50;;;;;;;;;;5036956;28;20943;-71
2022/10/21 02:09:41;;;;;;;26.87;16.27;;;;;;;;;;5036893;28;20415;-71
2022/10/21 02:12:07;;;;;;;21.50;16.90;;;;;;;;;;5037082;28;21165;-71
2022/10/21 02:14:41;;;;;;;19.43;16.17;;;;;;;;;;5036916;28;20910;-71
2022/10/21 02:17:10;;;;;;;19.87;15.10;;;;;;;;;;5037014;28;20528;-71
2022/10/21 02:19:36;;;;;;;25.43;15.77;;;;;;;;;;5036932;28;20408;-71
2022/10/21 02:22:03;;;;;;;24.40;17.67;;;;;;;;;;5036364;28;20464;-71
2022/10/21 02:24:35;;;;;;;17.87;15.80;;;;;;;;;;5037010;28;20849;-71
2022/10/21 02:27:01;;;;;;;19.50;17.40;;;;;;;;;;5036840;28;20401;-71
2022/10/21 02:29:29;;;;;;;23.00;15.80;;;;;;;;;;5036716;28;20785;-72
2022/10/21 02:32:04;;;;;;;25.33;16.70;;;;;;;;;;5036635;28;20402;-71
2022/10/21 02:34:30;;;;;;;18.63;16.57;;;;;;;;;;5036490;28;20487;-71
2022/10/21 02:37:10;;;;;;;19.20;16.90;;;;;;;;;;5036409;28;20841;-70
2022/10/21 02:39:43;;;;;;;18.93;16.20;;;;;;;;;;5036519;28;20416;-71
2022/10/21 02:42:11;;;;;;;20.53;15.90;;;;;;;;;;5034861;28;20421;-71
2022/10/21 02:44:37;;;;;;;24.43;16.03;;;;;;;;;;5036582;28;20942;-70
2022/10/21 02:47:03;;;;;;;27.87;17.97;;;;;;;;;;5036348;28;20434;-71
2022/10/21 02:49:29;;;;;;;18.80;16.80;;;;;;;;;;5036059;28;20470;-70
2022/10/21 02:51:55;;;;;;;23.47;17.30;;;;;;;;;;5036210;28;20465;-71
2022/10/21 02:54:21;;;;;;;27.00;17.00;;;;;;;;;;5036249;28;20442;-71
2022/10/21 02:56:47;;;;;;;29.20;17.27;;;;;;;;;;5036104;28;20414;-71
2022/10/21 02:59:13;;;;;;;22.80;16.60;;;;;;;;;;5036041;28;20438;-71
2022/10/21 03:01:39;;;;;;;19.70;15.87;;;;;;;;;;5036441;28;20409;-71
2022/10/21 03:04:05;;;;;;;19.43;15.80;;;;;;;;;;5035966;28;20501;-71
2022/10/21 03:06:31;;;;;;;21.20;17.00;;;;;;;;;;5035828;28;20403;-71
2022/10/21 03:08:57;;;;;;;19.30;16.17;;;;;;;;;;5036030;28;20418;-71
2022/10/21 03:11:23;;;;;;;21.50;16.80;;;;;;;;;;5035887;28;20399;-72
2022/10/21 03:13:49;;;;;;;27.97;17.53;;;;;;;;;;5035862;28;20453;-72
2022/10/21 03:16:15;;;;;;;24.20;16.37;;;;;;;;;;5036123;28;20894;-71
2022/10/21 03:18:41;;;;;;;19.67;16.60;;;;;;;;;;5036159;28;20395;-71
2022/10/21 03:21:07;;;;;;;24.30;18.40;;;;;;;;;;5035772;28;20468;-71
2022/10/21 03:23:33;;;;;;;22.33;16.43;;;;;;;;;;5035518;28;20470;-71
2022/10/21 03:25:59;;;;;;;30.43;17.90;;;;;;;;;;5035525;28;20455;-71
2022/10/21 03:28:25;;;;;;;25.40;19.63;;;;;;;;;;5035783;28;20411;-71
2022/10/21 03:30:51;;;;;;;25.23;17.97;;;;;;;;;;5035581;28;20909;-71
2022/10/21 03:33:17;;;;;;;26.83;18.83;;;;;;;;;;5035531;28;20416;-71
2022/10/21 03:35:43;;;;;;;33.30;19.70;;;;;;;;;;5035568;28;20406;-70
2022/10/21 03:38:09;;;;;;;25.93;19.50;;;;;;;;;;5035205;28;20410;-71
2022/10/21 03:40:34;;;;;;;41.53;23.60;;;;;;;;;;5035562;28;20493;-70
2022/10/21 03:43:00;;;;;;;44.60;25.37;;;;;;;;;;5035318;28;20458;-71
2022/10/21 03:45:26;;;;;;;38.70;24.20;;;;;;;;;;5035347;28;20415;-70
2022/10/21 03:47:52;;;;;;;35.87;22.40;;;;;;;;;;5035661;28;20490;-70
2022/10/21 03:50:19;;;;;;;34.97;21.67;;;;;;;;;;5035641;28;20498;-72
2022/10/21 03:52:45;;;;;;;32.20;21.93;;;;;;;;;;5035169;28;20464;-71
2022/10/21 03:55:11;;;;;;;43.80;23.80;;;;;;;;;;5034955;28;20410;-70
2022/10/21 03:57:37;;;;;;;38.73;22.50;;;;;;;;;;5035089;28;20415;-70
2022/10/21 04:00:03;;;;;;;37.33;23.47;;;;;;;;;;5034925;28;20457;-70
2022/10/21 04:02:29;;;;;;;35.60;22.57;;;;;;;;;;5034918;28;20520;-69
2022/10/21 04:04:55;;;;;;;28.13;20.43;;;;;;;;;;5034811;28;20415;-70
2022/10/21 04:07:21;;;;;;;36.50;24.70;;;;;;;;;;5034583;28;20404;-69
2022/10/21 04:09:47;;;;;;;33.83;22.23;;;;;;;;;;5033919;28;20417;-69
2022/10/21 04:12:13;;;;;;;34.33;24.13;;;;;;;;;;5033833;28;20417;-71
2022/10/21 04:14:39;;;;;;;34.27;24.20;;;;;;;;;;5033854;28;20434;-69
2022/10/21 04:17:05;;;;;;;26.63;22.50;;;;;;;;;;5033673;28;20412;-69
2022/10/21 04:19:31;;;;;;;31.90;21.13;;;;;;;;;;5033747;28;20399;-69
2022/10/21 04:21:57;;;;;;;48.73;36.03;;;;;;;;;;5033657;28;20506;-69
2022/10/21 04:24:23;;;;;;;23.47;21.00;;;;;;;;;;5033821;28;20599;-69
2022/10/21 04:26:49;;;;;;;30.37;22.27;;;;;;;;;;5034654;28;20411;-69
2022/10/21 04:29:14;;;;;;;35.63;23.03;;;;;;;;;;5034525;28;20415;-69
2022/10/21 04:31:40;;;;;;;31.13;21.90;;;;;;;;;;5034053;28;20413;-69
2022/10/21 04:34:06;;;;;;;33.57;21.57;;;;;;;;;;5034312;28;20417;-69
2022/10/21 04:36:32;;;;;;;35.87;22.00;;;;;;;;;;5034366;28;20438;-69
2022/10/21 04:38:58;;;;;;;32.00;22.87;;;;;;;;;;5034319;28;20877;-69
2022/10/21 04:41:24;;;;;;;29.60;22.43;;;;;;;;;;5034174;28;20414;-69
2022/10/21 04:43:50;;;;;;;32.13;22.20;;;;;;;;;;5034266;28;20477;-69
2022/10/21 04:46:19;;;;;;;25.27;20.03;;;;;;;;;;5034066;28;20832;-69
2022/10/21 04:48:45;;;;;;;32.63;23.00;;;;;;;;;;5033990;28;20470;-69
2022/10/21 04:51:11;;;;;;;30.33;22.03;;;;;;;;;;5033799;28;20413;-70
2022/10/21 04:53:37;;;;;;;32.30;21.83;;;;;;;;;;5033917;28;20435;-69
2022/10/21 04:56:03;;;;;;;31.13;22.97;;;;;;;;;;5034119;28;20446;-69
2022/10/21 04:58:29;;;;;;;33.23;23.60;;;;;;;;;;5033917;28;20419;-69
2022/10/21 05:00:55;;;;;;;39.63;24.00;;;;;;;;;;5033740;28;20403;-69
2022/10/21 05:03:21;;;;;;;34.33;26.50;;;;;;;;;;5033677;28;20474;-69
2022/10/21 05:05:50;;;;;;;33.20;25.17;;;;;;;;;;5033922;28;20427;-70
2022/10/21 05:08:17;;;;;;;30.40;21.67;;;;;;;;;;5033697;28;20450;-69
2022/10/21 05:10:43;;;;;;;26.97;20.97;;;;;;;;;;5033713;28;20421;-69
2022/10/21 05:13:09;;;;;;;34.70;21.80;;;;;;;;;;5033387;28;20915;-69
2022/10/21 05:15:35;;;;;;;27.33;19.03;;;;;;;;;;5033622;28;20454;-69
2022/10/21 05:18:01;;;;;;;37.43;27.70;;;;;;;;;;5033573;28;20834;-69
2022/10/21 05:20:27;;;;;;;21.83;19.27;;;;;;;;;;5033325;28;20423;-69
2022/10/21 05:22:53;;;;;;;26.43;19.37;;;;;;;;;;5033507;28;20466;-69
2022/10/21 05:25:19;;;;;;;29.87;20.17;;;;;;;;;;5033236;28;20401;-69
2022/10/21 05:27:45;;;;;;;24.90;18.87;;;;;;;;;;5033465;28;20914;-69
2022/10/21 05:30:12;;;;;;;25.67;19.00;;;;;;;;;;5033342;28;20392;-69
2022/10/21 05:32:38;;;;;;;27.70;21.10;;;;;;;;;;5033170;28;20449;-69
2022/10/21 05:35:05;;;;;;;25.33;18.60;;;;;;;;;;5033350;28;20754;-69
2022/10/21 05:37:31;;;;;;;19.80;17.70;;;;;;;;;;5032415;28;20411;-69
2022/10/21 05:39:57;;;;;;;26.17;20.17;;;;;;;;;;5032844;28;20406;-69
2022/10/21 05:42:23;;;;;;;24.87;19.17;;;;;;;;;;5033021;28;20410;-69
2022/10/21 05:44:49;;;;;;;28.17;22.50;;;;;;;;;;5033357;28;20446;-69
2022/10/21 05:47:14;;;;;;;26.90;20.10;;;;;;;;;;5032987;28;20881;-69
2022/10/21 05:49:40;;;;;;;28.07;20.20;;;;;;;;;;5032719;28;20905;-70
2022/10/21 05:52:06;;;;;;;23.57;17.83;;;;;;;;;;5033199;28;20417;-69
2022/10/21 05:54:32;;;;;;;27.97;20.03;;;;;;;;;;5033225;28;20537;-68
2022/10/21 05:56:58;;;;;;;23.80;17.93;;;;;;;;;;5032965;28;20430;-69
2022/10/21 05:59:25;;;;;;;27.67;18.50;;;;;;;;;;5033141;28;20411;-69
2022/10/21 06:01:51;;;;;;;28.67;19.43;;;;;;;;;;5033140;28;20461;-69
2022/10/21 06:04:17;;;;;;;38.30;21.47;;;;;;;;;;5032809;28;20478;-68
2022/10/21 06:06:43;;;;;;;25.37;19.30;;;;;;;;;;5033140;28;20411;-69
2022/10/21 06:09:09;;;;;;;29.97;17.73;;;;;;;;;;5032803;28;20490;-69
2022/10/21 06:11:35;;;;;;;19.93;15.37;;;;;;;;;;5033013;28;20411;-69
2022/10/21 06:14:01;;;;;;;29.17;19.10;;;;;;;;;;5032720;28;20411;-69
2022/10/21 06:16:27;;;;;;;24.97;15.00;;;;;;;;;;5032929;28;20416;-69
2022/10/21 06:18:53;;;;;;;25.07;16.07;;;;;;;;;;5032974;28;20418;-69
2022/10/21 06:21:19;;;;;;;26.93;20.40;;;;;;;;;;5032922;28;20403;-68
2022/10/21 06:23:45;;;;;;;24.40;17.10;;;;;;;;;;5032795;28;20626;-69
2022/10/21 06:26:13;;;;;;;36.73;28.30;;;;;;;;;;5033102;28;20545;-69
2022/10/21 06:28:40;;;;;;;27.97;19.07;;;;;;;;;;5031683;28;20436;-67
2022/10/21 06:31:06;;;;;;;21.43;16.67;;;;;;;;;;5032736;28;20494;-69
2022/10/21 06:33:32;;;;;;;20.60;16.50;;;;;;;;;;5032818;28;20419;-69
2022/10/21 06:35:58;;;;;;;24.10;17.90;;;;;;;;;;5032925;28;20407;-69
2022/10/21 06:38:27;;;;;;;24.27;18.33;;;;;;;;;;5032736;28;20773;-70
2022/10/21 06:41:00;;;;;;;34.87;19.30;;;;;;;;;;5032313;28;20450;-70
2022/10/21 06:43:26;;;;;;;29.40;17.10;;;;;;;;;;5032557;28;20478;-70
2022/10/21 06:45:52;;;;;;;22.23;17.07;;;;;;;;;;5032530;28;20407;-69
2022/10/21 06:48:18;;;;;;;31.57;19.83;;;;;;;;;;5033045;28;20494;-70
2022/10/21 06:50:44;;;;;;;23.20;18.20;;;;;;;;;;5036446;28;20422;-69
2022/10/21 06:53:10;;;;;;;25.97;17.40;;;;;;;;;;5036282;28;20416;-69
2022/10/21 06:55:36;;;;;;;24.80;16.57;;;;;;;;;;5036367;28;20419;-71
2022/10/21 06:58:02;;;;;;;43.17;18.13;;;;;;;;;;5035080;28;20435;-69
2022/10/21 07:00:28;;;;;;;25.07;15.70;;;;;;;;;;5036263;28;20423;-69
2022/10/21 07:02:53;;;;;;;26.50;14.90;;;;;;;;;;5036138;28;20458;-69
2022/10/21 07:05:20;;;;;;;23.93;15.40;;;;;;;;;;5036105;28;20418;-69
2022/10/21 07:07:45;;;;;;;20.97;12.57;;;;;;;;;;5036104;28;20450;-69
2022/10/21 07:10:11;;;;;;;54.33;38.10;;;;;;;;;;5035995;28;20418;-69
2022/10/21 07:12:37;;;;;;;32.13;21.50;;;;;;;;;;5036042;28;20894;-69
2022/10/21 07:15:03;;;;;;;19.30;12.57;;;;;;;;;;5036076;28;20406;-69
2022/10/21 07:17:30;;;;;;;32.63;12.33;;;;;;;;;;5035939;28;20443;-70
2022/10/21 07:19:56;;;;;;;21.77;12.23;;;;;;;;;;5035993;28;20419;-70
2022/10/21 07:22:22;;;;;;;24.53;13.27;;;;;;;;;;5034610;28;20434;-69
2022/10/21 07:24:48;;;;;;;18.27;12.17;;;;;;;;;;5035820;28;20419;-69
2022/10/21 07:27:13;;;;;;;24.83;12.30;;;;;;;;;;5035838;28;20489;-70
2022/10/21 07:29:39;;;;;;;19.40;11.60;;;;;;;;;;5035744;28;20434;-70
2022/10/21 07:32:05;;;;;;;29.30;13.07;;;;;;;;;;5035736;28;20537;-70
2022/10/21 07:34:31;;;;;;;17.00;11.43;;;;;;;;;;5035693;28;20409;-69
2022/10/21 07:36:57;;;;;;;23.53;12.27;;;;;;;;;;5035904;28;20502;-70
2022/10/21 07:39:24;;;;;;;14.60;10.20;;;;;;;;;;5035610;28;20416;-71
2022/10/21 07:41:52;;;;;;;14.50;9.70;;;;;;;;;;5035453;28;20465;-68
2022/10/21 07:44:19;;;;;;;13.00;8.90;;;;;;;;;;5035326;28;20485;-69
2022/10/21 07:46:45;;;;;;;16.17;11.60;;;;;;;;;;5035393;28;20414;-70
2022/10/21 07:49:12;;;;;;;18.90;8.50;;;;;;;;;;5035254;28;20466;-70
2022/10/21 07:51:38;;;;;;;18.33;7.50;;;;;;;;;;5035301;28;20507;-68
2022/10/21 07:54:05;;;;;;;13.70;7.70;;;;;;;;;;5035269;28;20395;-69
2022/10/21 07:56:32;;;;;;;13.37;8.53;;;;;;;;;;5035188;28;20442;-69
2022/10/21 07:58:58;;;;;;;12.17;7.57;;;;;;;;;;5034393;28;20882;-70
2022/10/21 08:01:24;;;;;;;8.83;6.27;;;;;;;;;;5034959;28;20913;-68
2022/10/21 08:03:52;;;;;;;6.43;5.67;;;;;;;;;;5034874;28;20478;-69
2022/10/21 08:06:18;;;;;;;9.73;5.33;;;;;;;;;;5035081;28;20407;-69
2022/10/21 08:08:45;;;;;;;9.17;5.40;;;;;;;;;;5035003;28;20895;-68
2022/10/21 08:11:11;;;;;;;9.00;5.10;;;;;;;;;;5034891;28;20402;-69
2022/10/21 08:13:40;;;;;;;10.03;4.60;;;;;;;;;;5034925;28;20415;-69
2022/10/21 08:16:06;;;;;;;9.70;5.20;;;;;;;;;;5035109;28;20468;-69
2022/10/21 08:18:32;;;;;;;10.00;5.30;;;;;;;;;;5034759;28;20481;-69
2022/10/21 08:20:58;;;;;;;8.40;5.83;;;;;;;;;;5035018;28;20404;-69
2022/10/21 08:23:25;;;;;;;8.63;5.50;;;;;;;;;;5034583;28;20537;-69
2022/10/21 08:25:52;;;;;;;8.67;5.23;;;;;;;;;;5034507;28;20438;-69
2022/10/21 08:28:18;;;;;;;10.13;5.43;;;;;;;;;;5034504;28;20461;-69
2022/10/21 08:30:45;;;;;;;9.23;5.90;;;;;;;;;;5034759;28;20411;-69
2022/10/21 08:33:11;;;;;;;7.40;6.00;;;;;;;;;;5034507;28;20416;-70
2022/10/21 08:35:38;;;;;;;11.50;6.20;;;;;;;;;;5034614;28;20400;-70
2022/10/21 08:38:04;;;;;;;5.03;4.47;;;;;;;;;;5034402;28;20423;-70
2022/10/21 08:40:35;;;;;;;7.63;3.93;;;;;;;;;;5034367;28;20454;-69
2022/10/21 08:43:09;;;;;;;5.97;4.20;;;;;;;;;;5034278;28;20985;-69
2022/10/21 08:45:43;;;;;;;8.17;3.60;;;;;;;;;;5034280;28;20501;-69
2022/10/21 08:48:14;;;;;;;5.87;3.37;;;;;;;;;;5033985;28;20875;-69
2022/10/21 08:50:40;;;;;;;10.27;3.07;;;;;;;;;;5034448;28;20420;-69
2022/10/21 08:53:30;;;;;;;11.27;2.97;;;;;;;;;;5034123;28;20404;-69
2022/10/21 08:56:05;;;;;;;2.70;2.53;;;;;;;;;;5027428;28;20435;-69
2022/10/21 08:58:31;;;;;;;5.40;1.83;;;;;;;;;;5033996;28;20923;-68
2022/10/21 09:01:16;;;;;;;4.00;2.13;;;;;;;;;;5033981;28;20892;-69
2022/10/21 09:03:44;;;;;;;2.60;1.70;;;;;;;;;;5033904;28;20518;-71
2022/10/21 09:06:13;;;;;;;7.63;2.23;;;;;;;;;;5033826;28;20450;-71
2022/10/21 09:08:55;;;;;;;3.43;1.60;;;;;;;;;;5033880;28;20408;-70
2022/10/21 09:11:27;;;;;;;4.27;1.20;;;;;;;;;;5033614;28;20486;-69
2022/10/21 09:14:15;;;;;;;2.73;1.13;;;;;;;;;;5033768;28;20506;-70
2022/10/21 09:16:58;;;;;;;2.10;1.10;;;;;;;;;;5033711;28;20397;-69
2022/10/21 09:19:30;;;;;;;1.33;1.23;;;;;;;;;;5033919;28;20518;-69
2022/10/21 09:21:59;;;;;;;1.80;1.00;;;;;;;;;;5033537;28;20419;-69
2022/10/21 09:24:37;;;;;;;1.80;1.13;;;;;;;;;;5033399;28;20869;-69
2022/10/21 09:27:04;;;;;;;1.50;1.40;;;;;;;;;;5033626;28;20410;-69
2022/10/21 09:29:30;;;;;;;4.13;0.93;;;;;;;;;;5033855;28;20454;-71
2022/10/21 09:31:59;;;;;;;2.53;1.20;;;;;;;;;;5033805;28;20494;-69
2022/10/21 09:34:34;;;;;;;1.17;1.00;;;;;;;;;;5033602;28;20763;-68
2022/10/21 09:37:03;;;;;;;1.93;0.93;;;;;;;;;;5033527;28;20403;-68
2022/10/21 09:39:35;;;;;;;1.23;1.10;;;;;;;;;;5033509;28;21022;-67
2022/10/21 09:42:01;;;;;;;0.80;0.80;;;;;;;;;;5033510;28;20735;-69
2022/10/21 09:44:27;;;;;;;7.20;1.20;;;;;;;;;;5033328;28;20482;-68
2022/10/21 09:46:54;;;;;;;1.57;1.00;;;;;;;;;;5033436;28;20809;-69
2022/10/21 09:49:30;;;;;;;1.33;1.00;;;;;;;;;;5033240;28;20478;-68
2022/10/21 09:51:58;;;;;;;2.63;1.07;;;;;;;;;;5033636;28;20420;-69
2022/10/21 09:54:25;;;;;;;2.00;0.80;;;;;;;;;;5033282;28;20416;-69
2022/10/21 09:56:58;;;;;;;2.00;1.20;;;;;;;;;;5033260;28;20409;-69
2022/10/21 09:59:24;;;;;;;6.43;1.30;;;;;;;;;;5033269;28;20462;-69
2022/10/21 10:01:50;;;;;;;2.40;1.90;;;;;;;;;;5033346;28;20405;-69
2022/10/21 10:04:16;;;;;;;4.70;1.43;;;;;;;;;;5033357;28;20470;-68
2022/10/21 10:06:44;;;;;;;1.57;1.47;;;;;;;;;;5033222;28;20495;-69
2022/10/21 10:09:14;;;;;;;8.23;1.40;;;;;;;;;;5033160;28;20736;-69
2022/10/21 10:11:52;;;;;;;1.83;1.67;;;;;;;;;;5033133;28;20407;-69
2022/10/21 10:14:23;;;;;;;5.00;1.43;;;;;;;;;;5033412;28;20488;-71
2022/10/21 10:16:49;;;;;;;3.17;1.70;;;;;;;;;;5033125;28;20419;-70
2022/10/21 10:19:16;;;;;;;4.00;1.57;;;;;;;;;;5033118;28;20411;-70
2022/10/21 10:21:43;;;;;;;1.90;1.80;;;;;;;;;;5032125;28;20470;-71
2022/10/21 10:24:15;;;;;;;2.47;1.50;;;;;;;;;;5036315;28;20879;-70
2022/10/21 10:26:42;;;;;;;4.43;1.73;;;;;;;;;;5036879;28;20457;-71
2022/10/21 10:29:14;;;;;;;4.43;1.77;;;;;;;;;;5035575;28;20427;-71
2022/10/21 10:31:45;;;;;;;6.73;2.30;;;;;;;;;;5036805;28;20432;-70
2022/10/21 10:34:17;;;;;;;7.53;2.20;;;;;;;;;;5036788;28;20416;-70
2022/10/21 10:36:43;;;;;;;2.57;2.37;;;;;;;;;;5036758;28;20409;-69
2022/10/21 10:39:17;;;;;;;9.20;2.10;;;;;;;;;;5036712;28;20891;-70
2022/10/21 10:41:46;;;;;;;2.73;2.23;;;;;;;;;;5036754;28;20419;-69
2022/10/21 10:44:20;;;;;;;3.63;2.17;;;;;;;;;;5036581;28;20474;-69
2022/10/21 10:46:52;;;;;;;5.77;2.33;;;;;;;;;;5036576;28;20885;-68
2022/10/21 10:49:23;;;;;;;5.10;2.13;;;;;;;;;;5036333;28;20478;-69
2022/10/21 10:52:03;;;;;;;2.53;2.30;;;;;;;;;;5036501;28;20412;-68
2022/10/21 10:54:29;;;;;;;4.30;2.53;;;;;;;;;;5036458;28;20415;-70
2022/10/21 10:57:04;;;;;;;4.40;1.97;;;;;;;;;;5035084;28;20417;-69
2022/10/21 10:59:30;;;;;;;4.47;2.10;;;;;;;;;;5036223;28;20422;-70
2022/10/21 11:02:09;;;;;;;6.00;1.63;;;;;;;;;;5036300;28;20505;-69
2022/10/21 11:04:39;;;;;;;7.23;1.90;;;;;;;;;;5034933;28;20478;-70
2022/10/21 11:07:28;;;;;;;1.97;1.80;;;;;;;;;;5036172;28;20495;-69
2022/10/21 11:10:00;;;;;;;1.60;1.60;;;;;;;;;;5033181;28;20459;-69
2022/10/21 11:12:26;;;;;;;6.13;1.43;;;;;;;;;;5036401;28;20877;-68
2022/10/21 11:14:57;;;;;;;6.13;2.17;;;;;;;;;;5036284;28;20422;-68
2022/10/21 11:17:29;;;;;;;5.60;1.70;;;;;;;;;;5035966;28;20511;-68
2022/10/21 11:20:06;;;;;;;1.90;1.70;;;;;;;;;;5035949;28;20438;-69
2022/10/21 11:22:49;;;;;;;1.60;1.50;;;;;;;;;;5036149;28;20410;-69
2022/10/21 11:25:27;;;;;;;3.77;1.90;;;;;;;;;;5035898;28;20509;-69
2022/10/21 11:27:59;;;;;;;5.20;1.97;;;;;;;;;;5035844;28;20415;-68
2022/10/21 11:30:34;;;;;;;3.07;1.53;;;;;;;;;;5036026;28;20901;-69
2022/10/21 11:33:09;;;;;;;3.50;1.57;;;;;;;;;;5035794;28;20813;-69
2022/10/21 11:35:38;;;;;;;2.07;1.63;;;;;;;;;;5034664;28;20402;-68
2022/10/21 11:38:04;;;;;;;1.70;1.60;;;;;;;;;;5035564;28;20504;-69
2022/10/21 11:40:59;;;;;;;9.00;1.90;;;;;;;;;;5035623;28;20435;-68
2022/10/21 11:43:25;;;;;;;2.80;1.50;;;;;;;;;;5016310;28;20484;-68
2022/10/21 11:46:00;;;;;;;2.17;1.30;;;;;;;;;;5035822;28;20415;-67
2022/10/21 11:48:29;;;;;;;1.37;1.27;;;;;;;;;;5035426;28;20833;-68
2022/10/21 11:50:55;;;;;;;4.30;1.60;;;;;;;;;;5035780;28;20511;-67
2022/10/21 11:53:40;;;;;;;1.87;1.37;;;;;;;;;;5035293;28;20440;-68
2022/10/21 11:56:17;;;;;;;3.80;1.47;;;;;;;;;;5035370;28;20437;-69
2022/10/21 11:59:03;;;;;;;3.77;1.57;;;;;;;;;;5035274;28;20415;-68
2022/10/21 12:01:49;;;;;;;3.13;1.30;;;;;;;;;;5035184;28;20911;-69
2022/10/21 12:04:17;;;;;;;3.47;1.87;;;;;;;;;;5031106;28;20494;-68
2022/10/21 12:07:02;;;;;;;1.87;1.60;;;;;;;;;;5035359;28;20454;-69
2022/10/21 12:09:38;;;;;;;1.50;1.40;;;;;;;;;;5035018;28;20407;-70
2022/10/21 12:12:06;;;;;;;2.93;2.00;;;;;;;;;;5035000;28;20428;-70
2022/10/21 12:14:31;;;;;;;3.93;1.80;;;;;;;;;;5034917;28;20465;-70
2022/10/21 12:16:59;;;;;;;6.73;1.17;;;;;;;;;;5034895;28;20402;-69
2022/10/21 12:19:26;;;;;;;6.30;1.57;;;;;;;;;;5035039;28;20415;-69
2022/10/21 12:21:52;;;;;;;3.33;2.03;;;;;;;;;;5034895;28;20443;-69
2022/10/21 12:24:35;;;;;;;5.80;1.60;;;;;;;;;;5034720;28;20478;-69
2022/10/21 12:27:01;;;;;;;1.70;1.60;;;;;;;;;;5034851;28;20498;-69
2022/10/21 12:29:36;;;;;;;4.00;1.97;;;;;;;;;;5034628;28;20423;-69
2022/10/21 12:32:05;;;;;;;2.57;1.57;;;;;;;;;;5034657;28;20411;-70
2022/10/21 12:34:32;;;;;;;7.13;2.00;;;;;;;;;;5033332;28;20419;-69
2022/10/21 12:36:58;;;;;;;1.80;1.50;;;;;;;;;;5034550;28;20910;-70
2022/10/21 12:39:33;;;;;;;3.60;1.53;;;;;;;;;;5033152;28;20419;-70
2022/10/21 12:42:17;;;;;;;3.83;1.53;;;;;;;;;;5034410;28;20420;-69
2022/10/21 12:44:47;;;;;;;5.67;1.27;;;;;;;;;;5034241;28;20569;-69
2022/10/21 12:47:21;;;;;;;1.20;1.20;;;;;;;;;;5034049;28;20417;-69
2022/10/21 12:50:02;;;;;;;1.53;1.43;;;;;;;;;;5034254;28;20425;-69
2022/10/21 12:52:29;;;;;;;2.17;1.60;;;;;;;;;;5034173;28;20401;-69
2022/10/21 12:54:57;;;;;;;5.60;1.60;;;;;;;;;;5034142;28;20406;-68
2022/10/21 12:57:26;;;;;;;4.80;1.20;;;;;;;;;;5034370;28;20810;-68
2022/10/21 13:00:12;;;;;;;2.00;1.90;;;;;;;;;;5034034;28;20405;-69
2022/10/21 13:02:58;;;;;;;7.50;1.53;;;;;;;;;;5032608;28;20413;-70
2022/10/21 13:05:36;;;;;;;1.53;1.40;;;;;;;;;;5034082;28;20414;-70
2022/10/21 13:08:25;;;;;;;4.63;1.60;;;;;;;;;;5033966;28;20414;-70
2022/10/21 13:11:04;;;;;;;3.13;1.50;;;;;;;;;;5034019;28;20398;-70
2022/10/21 13:13:37;;;;;;;3.63;1.47;;;;;;;;;;5034035;28;20425;-71
2022/10/21 13:16:15;;;;;;;3.60;1.50;;;;;;;;;;5033891;28;20961;-70
2022/10/21 13:18:51;;;;;;;2.93;1.40;;;;;;;;;;5033933;28;20457;-70
2022/10/21 13:21:23;;;;;;;2.93;1.53;;;;;;;;;;5033922;28;20402;-71
2022/10/21 13:23:51;;;;;;;3.30;1.30;;;;;;;;;;5033700;28;20528;-71
2022/10/21 13:26:23;;;;;;;3.33;1.43;;;;;;;;;;5033784;28;20452;-70
2022/10/21 13:28:56;;;;;;;1.00;1.00;;;;;;;;;;5033929;28;20411;-71
2022/10/21 13:31:22;;;;;;;3.60;1.10;;;;;;;;;;5033639;28;20400;-71
2022/10/21 13:33:51;;;;;;;4.27;1.40;;;;;;;;;;5033650;28;20415;-72
2022/10/21 13:36:27;;;;;;;1.17;1.17;;;;;;;;;;5033843;28;20408;-72
2022/10/21 13:38:54;;;;;;;2.00;0.97;;;;;;;;;;5033830;28;20506;-72
2022/10/21 13:41:21;;;;;;;6.93;1.00;;;;;;;;;;5033539;28;20835;-72
2022/10/21 13:43:50;;;;;;;0.90;0.90;;;;;;;;;;5032179;28;20475;-72
2022/10/21 13:46:17;;;;;;;4.87;0.90;;;;;;;;;;5033478;28;20417;-72
2022/10/21 13:48:44;;;;;;;1.80;0.90;;;;;;;;;;5033186;28;20479;-71
2022/10/21 13:51:19;;;;;;;1.10;1.10;;;;;;;;;;5032078;28;20794;-71
2022/10/21 13:53:46;;;;;;;1.20;1.10;;;;;;;;;;5033618;28;20785;-72
2022/10/21 13:56:23;;;;;;;2.30;1.00;;;;;;;;;;5033354;28;20825;-72
2022/10/21 13:58:49;;;;;;;9.70;4.60;;;;;;;;;;5036231;28;20495;-72
2022/10/21 14:01:18;;;;;;;9.50;8.47;;;;;;;;;;5037489;28;20414;-71
2022/10/21 14:03:45;;;;;;;4.13;3.73;;;;;;;;;;5037509;28;20475;-71
2022/10/21 14:06:14;;;;;;;3.17;2.90;;;;;;;;;;5037595;28;20425;-72
2022/10/21 14:08:42;;;;;;;2.23;2.13;;;;;;;;;;5037289;28;20448;-71
2022/10/21 14:11:11;;;;;;;7.40;2.70;;;;;;;;;;5037467;28;20814;-71
2022/10/21 14:13:38;;;;;;;11.90;10.83;;;;;;;;;;5037224;28;20506;-72
2022/10/21 14:16:06;;;;;;;6.60;6.20;;;;;;;;;;5037241;28;20823;-72
2022/10/21 14:18:32;;;;;;;3.27;3.07;;;;;;;;;;5037109;28;20504;-71
2022/10/21 14:20:59;;;;;;;3.10;3.00;;;;;;;;;;5037106;28;20432;-72
2022/10/21 14:23:25;;;;;;;4.37;4.03;;;;;;;;;;5037022;28;20497;-72
2022/10/21 14:25:53;;;;;;;4.53;3.73;;;;;;;;;;5037259;28;20425;-72
2022/10/21 14:28:19;;;;;;;2.73;2.53;;;;;;;;;;5035937;28;20771;-72
2022/10/21 14:30:46;;;;;;;4.10;1.50;;;;;;;;;;5036911;28;20399;-71
2022/10/21 14:33:14;;;;;;;2.93;1.40;;;;;;;;;;5036863;28;20732;-71
2022/10/21 14:35:40;;;;;;;4.87;1.70;;;;;;;;;;5036784;28;20403;-72
2022/10/21 14:38:25;;;;;;;1.37;1.23;;;;;;;;;;5036780;28;20410;-72
2022/10/21 14:40:59;;;;;;;3.43;0.90;;;;;;;;;;5036694;28;20408;-71